Newnan, Georgia
Current Conditions -  °F | °C
As of 11:15 AM on Monday 22 Dec 2014 (Local Time) from KCCO Reporting Station
Haze Haze  
Wind Chill: 43°   Ceiling: 200
Heat Index: 46°   Visibility: 1.5mi
Dew Point: 46°   Wind: 7mph
Humidity: 100%   Direction: 100°E
Pressure: 30"   Gusts: NA
Location:  33.38°N, 84.8°W
Report Text: KCCO 221615Z AUTO 10006KT 1 1/2SM BR OVC002 08/08 A3000 RMK AO2 LTG DSNT S T00800080
Loading
Personal Weather Stations






























Interactive Weather Map New forecast layout! Learn more

10-Day Weather Forecast

Advertisements
Track Severe Weather on mobile